Puriton, United Kingdom
Current Conditions -  °F | °C
As of 11:20 AM on Monday 22 Dec 2014 (Local Time) from EGGD Reporting Station
Broken Clouds Broken Clouds  
Wind Chill: 52°   Ceiling: 1300
Heat Index: 52°   Visibility: 6mi
Dew Point: 46°   Wind: 16mph
Humidity: 82%   Direction: 240°WSW
Pressure: 30.09"   Gusts: 30mph
Location:  51.17°N, 2.97°W
Report Text: EGGD 221120Z 24014G26KT 9999 BKN013 11/08 Q1019
Loading
Personal Weather Stations






























Interactive Weather Map New forecast layout! Learn more

10-Day Weather Forecast

Advertisements
Track Severe Weather on mobile